createdAt,value
2018-12-24T00:00:27.913Z,1.57
2018-12-24T00:05:32.128Z,1.83
2018-12-24T00:10:36.435Z,1.97
2018-12-24T00:15:40.745Z,2.60
2018-12-24T00:20:44.897Z,3.40
2018-12-24T00:25:49.190Z,3.53
2018-12-24T00:30:53.624Z,2.83
2018-12-24T00:35:57.813Z,4.03
2018-12-24T00:41:02.010Z,2.90
2018-12-24T00:46:06.344Z,3.63
2018-12-24T00:51:10.533Z,1.90
2018-12-24T00:56:14.976Z,3.47
2018-12-24T01:01:19.206Z,4.40
2018-12-24T01:06:23.461Z,3.80
2018-12-24T01:11:27.638Z,3.47
2018-12-24T01:16:31.876Z,4.57
2018-12-24T01:21:36.032Z,2.10
2018-12-24T01:26:40.207Z,3.13
2018-12-24T01:31:44.408Z,2.97
2018-12-24T01:36:48.547Z,2.40
2018-12-24T01:41:52.730Z,2.80
2018-12-24T01:46:56.866Z,3.83
2018-12-24T01:52:01.125Z,4.50
2018-12-24T01:57:05.363Z,4.03
2018-12-24T02:02:09.556Z,4.13
2018-12-24T02:07:13.731Z,4.63
2018-12-24T02:12:17.877Z,3.93
2018-12-24T02:17:22.030Z,2.67
2018-12-24T02:22:26.311Z,2.57
2018-12-24T02:27:30.497Z,3.53
2018-12-24T02:32:34.678Z,2.57
2018-12-24T02:37:38.832Z,3.63
2018-12-24T02:42:52.047Z,4.07
2018-12-24T02:47:48.852Z,2.53
2018-12-24T02:52:53.012Z,3.20
2018-12-24T02:57:57.145Z,2.63
2018-12-24T03:03:01.388Z,3.40
2018-12-24T03:08:05.575Z,3.87
2018-12-24T03:13:09.763Z,4.77
2018-12-24T03:18:13.913Z,5.83
2018-12-24T03:23:18.050Z,2.37
2018-12-24T03:28:22.212Z,2.27
2018-12-24T03:33:26.357Z,1.60
2018-12-24T03:38:30.508Z,2.43
2018-12-24T03:43:34.650Z,1.40
2018-12-24T03:48:38.919Z,1.40
2018-12-24T03:53:43.156Z,1.63
2018-12-24T03:58:47.324Z,2.07
2018-12-24T04:03:51.493Z,2.57
2018-12-24T04:08:55.709Z,2.20
2018-12-24T04:13:59.880Z,2.93
2018-12-24T04:19:04.086Z,3.30
2018-12-24T04:24:08.265Z,3.50
2018-12-24T04:29:12.425Z,2.97
2018-12-24T04:34:16.651Z,3.53
2018-12-24T04:39:20.826Z,1.90
2018-12-24T04:44:25.018Z,2.47
2018-12-24T04:49:29.215Z,2.00
2018-12-24T04:54:33.358Z,2.60
2018-12-24T04:59:37.494Z,1.73
2018-12-24T05:04:41.663Z,1.60
2018-12-24T05:09:45.836Z,1.30
2018-12-24T05:14:50.013Z,0.80
2018-12-24T05:19:54.165Z,0.57
2018-12-24T05:24:58.488Z,0.73
2018-12-24T05:30:02.651Z,1.30
2018-12-24T05:35:06.857Z,2.27
2018-12-24T05:40:10.983Z,1.10
2018-12-24T05:45:15.182Z,2.35
2018-12-24T05:50:19.484Z,1.30
2018-12-24T05:55:23.680Z,1.20
2018-12-24T06:00:27.836Z,1.90
2018-12-24T06:05:32.006Z,1.83
2018-12-24T06:10:36.199Z,3.17
2018-12-24T06:15:40.328Z,2.37
2018-12-24T06:20:44.517Z,2.63
2018-12-24T06:25:48.713Z,2.67
2018-12-24T06:30:52.881Z,2.27
2018-12-24T06:35:57.105Z,2.50
2018-12-24T06:41:01.260Z,2.87
2018-12-24T06:46:05.491Z,4.40
2018-12-24T06:51:09.643Z,3.97
2018-12-24T06:56:13.832Z,3.63
2018-12-24T07:01:17.990Z,4.60
2018-12-24T07:06:22.205Z,5.23
2018-12-24T07:11:26.367Z,4.70
2018-12-24T07:16:30.566Z,5.60
2018-12-24T07:21:34.741Z,3.60
2018-12-24T07:26:38.897Z,4.87
2018-12-24T07:31:43.064Z,6.63
2018-12-24T07:36:47.361Z,5.23
2018-12-24T07:41:51.501Z,4.87
2018-12-24T07:46:55.651Z,6.37
2018-12-24T07:51:59.828Z,3.70
2018-12-24T07:57:04.012Z,3.23
2018-12-24T08:02:08.161Z,3.47
2018-12-24T08:07:12.332Z,2.67
2018-12-24T08:12:16.469Z,3.23
2018-12-24T08:17:20.765Z,4.67
2018-12-24T08:22:25.295Z,3.63
2018-12-24T08:27:29.475Z,2.73
2018-12-24T08:32:33.648Z,3.60
2018-12-24T08:37:37.824Z,3.73
2018-12-24T08:42:41.976Z,2.93
2018-12-24T08:47:46.106Z,4.53
2018-12-24T08:52:50.237Z,1.63
2018-12-24T08:57:54.396Z,1.57
2018-12-24T09:02:58.561Z,1.07
2018-12-24T09:08:02.738Z,1.10
2018-12-24T09:13:06.887Z,1.43
2018-12-24T09:18:11.054Z,1.90
2018-12-24T09:23:15.198Z,1.10
2018-12-24T09:28:19.335Z,0.90
2018-12-24T09:33:23.494Z,0.97
2018-12-24T09:38:27.665Z,1.80
2018-12-24T09:43:31.803Z,1.23
2018-12-24T09:49:02.477Z,1.03
2018-12-24T09:54:04.475Z,2.10
2018-12-24T09:59:08.741Z,1.10
2018-12-24T10:04:30.109Z,1.73
2018-12-24T10:09:34.359Z,1.30
2018-12-24T10:14:38.597Z,1.80
2018-12-24T10:19:42.759Z,2.47
2018-12-24T10:24:46.955Z,2.07
2018-12-24T10:29:51.138Z,1.77
2018-12-24T10:34:55.340Z,2.13
2018-12-24T10:40:05.432Z,1.63
2018-12-24T10:45:16.309Z,1.30
2018-12-24T10:50:15.634Z,2.50
2018-12-24T10:55:19.795Z,2.43
2018-12-24T11:00:23.966Z,1.32
2018-12-24T11:05:28.170Z,1.13
2018-12-24T11:10:32.427Z,1.20
2018-12-24T11:15:36.686Z,1.20
2018-12-24T11:20:40.865Z,1.10
2018-12-24T11:25:45.026Z,1.67
2018-12-24T11:30:49.220Z,2.20
2018-12-24T11:35:53.615Z,1.63
2018-12-24T11:40:57.878Z,1.63
2018-12-24T11:46:02.089Z,2.00
2018-12-24T11:51:06.250Z,1.87
2018-12-24T11:56:10.417Z,1.50
2018-12-24T12:01:14.618Z,1.70
2018-12-24T12:06:19.822Z,3.73
2018-12-24T12:11:24.272Z,2.17
2018-12-24T12:16:28.465Z,2.85
2018-12-24T12:21:32.685Z,2.00
2018-12-24T12:26:36.931Z,1.57
2018-12-24T12:31:41.090Z,1.37
2018-12-24T12:36:45.224Z,2.00
2018-12-24T12:41:49.641Z,1.77
2018-12-24T12:46:57.339Z,2.00
2018-12-24T12:52:02.070Z,2.50
2018-12-24T12:57:06.217Z,1.70
2018-12-24T13:07:29.048Z,1.37
2018-12-24T13:12:33.224Z,1.60
2018-12-24T13:50:43.096Z,1.03
2018-12-24T13:56:27.652Z,1.60
2018-12-24T14:01:31.416Z,1.10
2018-12-24T14:06:35.213Z,1.35
2018-12-24T14:11:39.021Z,1.13
2018-12-24T14:16:42.848Z,1.40
2018-12-24T14:21:46.591Z,1.20
2018-12-24T14:26:50.310Z,2.53
2018-12-24T14:31:54.037Z,1.33
2018-12-24T14:36:57.740Z,1.47
2018-12-24T14:42:01.464Z,2.00
2018-12-24T14:47:05.205Z,2.10
2018-12-24T14:52:08.915Z,1.20
2018-12-24T14:57:12.630Z,2.67
2018-12-24T15:02:16.359Z,3.50
2018-12-24T15:07:20.078Z,2.13
2018-12-24T15:12:23.831Z,1.63
2018-12-24T15:17:27.554Z,1.83
2018-12-24T15:22:31.296Z,1.83
2018-12-24T15:27:35.012Z,1.93
2018-12-24T15:32:38.855Z,2.67
2018-12-24T15:37:42.565Z,2.17
2018-12-24T15:42:46.313Z,1.53
2018-12-24T15:47:50.029Z,1.70
2018-12-24T15:52:53.748Z,1.60
2018-12-24T15:57:57.488Z,2.23
2018-12-24T16:03:01.228Z,1.97
2018-12-24T16:08:04.956Z,2.43
2018-12-24T16:13:08.676Z,1.77
2018-12-24T16:18:12.412Z,1.70
2018-12-24T16:23:16.143Z,1.40
2018-12-24T16:28:19.867Z,1.90
2018-12-24T16:33:23.613Z,1.40
2018-12-24T16:38:30.399Z,1.93
2018-12-24T16:43:34.164Z,1.30
2018-12-24T16:48:37.928Z,1.80
2018-12-24T16:53:41.671Z,2.00
2018-12-24T16:58:45.460Z,2.93
2018-12-24T17:03:49.183Z,2.30
2018-12-24T17:08:52.914Z,1.63
2018-12-24T17:13:56.646Z,1.87
2018-12-24T17:19:00.378Z,1.93
2018-12-24T17:24:04.104Z,3.10
2018-12-24T17:29:07.879Z,1.93
2018-12-24T17:34:11.710Z,2.77
2018-12-24T17:39:15.542Z,2.77
2018-12-24T17:44:19.314Z,2.67
2018-12-24T17:49:23.050Z,2.43
2018-12-24T17:54:26.861Z,2.80
2018-12-24T17:59:30.656Z,2.00
2018-12-24T18:04:34.382Z,2.00
2018-12-24T18:09:38.101Z,2.00
2018-12-24T18:14:41.822Z,3.07
2018-12-24T18:19:45.587Z,3.00
2018-12-24T18:24:49.310Z,3.03
2018-12-24T18:29:53.020Z,2.10
2018-12-24T18:34:56.724Z,2.57
2018-12-24T18:40:00.438Z,2.57
2018-12-24T18:45:04.287Z,2.30
2018-12-24T18:50:08.393Z,2.23
2018-12-24T18:55:12.111Z,2.23
2018-12-24T19:00:16.057Z,2.53
2018-12-24T19:05:19.840Z,2.03
2018-12-24T19:10:23.679Z,2.60
2018-12-24T19:15:27.397Z,2.17
2018-12-24T19:20:31.155Z,5.00
2018-12-24T19:25:34.949Z,3.73
2018-12-24T19:30:38.669Z,2.57
2018-12-24T19:35:42.486Z,3.17
2018-12-24T19:40:46.237Z,3.03
2018-12-24T19:45:50.088Z,2.75
2018-12-24T19:50:53.844Z,3.23
2018-12-24T19:55:57.715Z,4.40
2018-12-24T20:01:01.441Z,3.80
2018-12-24T20:06:05.196Z,3.43
2018-12-24T20:11:08.926Z,3.07
2018-12-24T20:16:12.643Z,3.47
2018-12-24T20:21:16.397Z,3.50
2018-12-24T20:26:20.137Z,3.40
2018-12-24T20:31:23.945Z,4.60
2018-12-24T20:36:27.658Z,3.03
2018-12-24T20:41:31.401Z,3.33
2018-12-24T20:46:35.193Z,3.13
2018-12-24T20:51:38.945Z,3.23
2018-12-24T20:56:42.719Z,4.93
2018-12-24T21:01:46.486Z,3.10
2018-12-24T21:06:50.303Z,3.30
2018-12-24T21:11:54.141Z,3.70
2018-12-24T21:16:57.967Z,5.00
2018-12-24T21:22:01.800Z,4.23
2018-12-24T21:27:05.674Z,3.53
2018-12-24T21:32:09.491Z,3.63
2018-12-24T21:37:13.323Z,3.20
2018-12-24T21:42:17.160Z,3.07
2018-12-24T21:47:20.941Z,3.50
2018-12-24T21:52:24.843Z,3.73
2018-12-24T21:57:28.705Z,4.77
2018-12-24T22:02:32.490Z,3.03
2018-12-24T22:07:36.343Z,3.23
2018-12-24T22:12:40.151Z,4.53
2018-12-24T22:17:43.904Z,3.57
2018-12-24T22:22:47.754Z,3.73
2018-12-24T22:27:51.513Z,3.93
2018-12-24T22:32:55.335Z,4.00
2018-12-24T22:37:59.105Z,3.97
2018-12-24T22:43:02.920Z,3.53
2018-12-24T22:48:06.762Z,5.77
2018-12-24T22:53:10.592Z,2.97
2018-12-24T22:58:14.421Z,3.73
2018-12-24T23:03:18.239Z,4.03
2018-12-24T23:08:22.050Z,4.50
2018-12-24T23:13:25.767Z,4.80
2018-12-24T23:18:29.615Z,5.80
2018-12-24T23:23:33.506Z,5.17
2018-12-24T23:28:37.323Z,5.97
2018-12-24T23:33:41.139Z,4.57
2018-12-24T23:38:45.026Z,4.03
2018-12-24T23:43:48.873Z,4.50
2018-12-24T23:48:57.665Z,4.07
2018-12-24T23:53:58.316Z,5.43
2018-12-24T23:59:02.094Z,4.27
